Time;durP1;ratioP1;P1;durP2;ratioP2;P2;SDS_P1;SDS_P2;PMS_P1;PMS_P2;Temp;Humidity;BMP_temperature;BMP_pressure;BME280_temperature;BME280_humidity;BME280_pressure;Samples;Min_cycle;Max_cycle;Signal;HPM_P1;HPM_P2
2023/07/03 00:04:26;;;;;;;28.77;18.85;;;;;;;;;;10541484;28;20324;-72
2023/07/03 00:09:27;;;;;;;27.20;19.13;;;;;;;;;;10541514;28;20039;-74
2023/07/03 00:14:27;;;;;;;29.25;19.20;;;;;;;;;;10539150;28;20334;-73
2023/07/03 00:19:30;;;;;;;28.77;20.02;;;;;;;;;;10542339;28;20043;-73
2023/07/03 00:24:31;;;;;;;29.77;20.23;;;;;;;;;;10542401;28;20027;-73
2023/07/03 00:35:09;;;;;;;28.70;19.33;;;;;;;;;;10539572;28;20020;-74
2023/07/03 00:45:47;;;;;;;32.63;21.63;;;;;;;;;;10547806;28;20008;-73
2023/07/03 00:50:47;;;;;;;29.52;19.13;;;;;;;;;;10548134;28;20083;-73
2023/07/03 00:55:48;;;;;;;27.92;19.40;;;;;;;;;;10549624;28;20027;-73
2023/07/03 01:00:58;;;;;;;26.42;18.30;;;;;;;;;;10548744;28;20016;-73
2023/07/03 01:11:37;;;;;;;39.67;18.63;;;;;;;;;;10547069;28;20044;-72
2023/07/03 01:16:37;;;;;;;35.35;20.70;;;;;;;;;;10547579;28;20016;-73
2023/07/03 01:21:45;;;;;;;27.52;19.25;;;;;;;;;;10546756;28;20261;-73
2023/07/03 01:26:46;;;;;;;29.30;21.02;;;;;;;;;;10562084;28;20023;-73
2023/07/03 01:31:56;;;;;;;30.42;22.02;;;;;;;;;;10546511;28;20023;-73
2023/07/03 01:36:58;;;;;;;31.67;21.35;;;;;;;;;;10559228;28;20182;-73
2023/07/03 01:41:59;;;;;;;32.33;20.52;;;;;;;;;;10546092;28;20044;-73
2023/07/03 01:47:03;;;;;;;34.22;20.15;;;;;;;;;;10545779;28;20314;-74
2023/07/03 01:52:06;;;;;;;38.30;21.85;;;;;;;;;;10545034;28;20065;-73
2023/07/03 01:57:07;;;;;;;36.65;23.73;;;;;;;;;;10546967;28;20254;-73
2023/07/03 02:02:11;;;;;;;32.17;21.45;;;;;;;;;;10545659;28;20065;-74
2023/07/03 02:12:49;;;;;;;37.28;20.88;;;;;;;;;;10543729;28;20296;-72
2023/07/03 02:29:05;;;;;;;33.55;21.48;;;;;;;;;;10543980;28;20306;-73
2023/07/03 02:34:05;;;;;;;32.05;20.45;;;;;;;;;;10542999;28;20020;-73
2023/07/03 02:44:43;;;;;;;29.30;18.25;;;;;;;;;;10543573;28;20274;-73
2023/07/03 02:49:43;;;;;;;30.05;19.50;;;;;;;;;;10540975;28;20020;-74
2023/07/03 02:54:44;;;;;;;30.95;19.77;;;;;;;;;;10544525;28;20261;-74
2023/07/03 03:05:21;;;;;;;31.75;20.17;;;;;;;;;;10542219;28;20078;-74
2023/07/03 03:10:22;;;;;;;28.33;19.17;;;;;;;;;;10541707;28;20330;-74
2023/07/03 03:26:37;;;;;;;27.83;18.85;;;;;;;;;;10543852;28;20008;-74
2023/07/03 03:31:37;;;;;;;31.02;19.42;;;;;;;;;;10540336;28;20036;-74
2023/07/03 03:36:53;;;;;;;29.52;19.30;;;;;;;;;;10541251;28;20058;-74
2023/07/03 03:41:53;;;;;;;31.85;19.15;;;;;;;;;;10539538;28;20020;-74
2023/07/03 03:46:53;;;;;;;27.80;18.80;;;;;;;;;;10541290;28;20022;-74
2023/07/03 03:51:54;;;;;;;28.95;18.70;;;;;;;;;;10542839;28;20016;-73
2023/07/03 04:02:31;;;;;;;29.40;18.50;;;;;;;;;;10540526;28;20012;-73
2023/07/03 04:07:32;;;;;;;32.33;20.10;;;;;;;;;;10538950;28;20024;-73
2023/07/03 04:12:32;;;;;;;31.98;19.30;;;;;;;;;;10541890;28;20086;-73
2023/07/03 04:28:49;;;;;;;29.80;20.67;;;;;;;;;;10549870;28;20245;-73
2023/07/03 04:33:49;;;;;;;29.95;18.50;;;;;;;;;;10548110;28;20016;-73
2023/07/03 04:38:49;;;;;;;26.35;18.05;;;;;;;;;;10545025;28;20257;-73
2023/07/03 04:43:51;;;;;;;42.70;18.43;;;;;;;;;;10547742;28;20039;-73
2023/07/03 04:48:59;;;;;;;27.92;17.70;;;;;;;;;;10545165;28;20027;-73
2023/07/03 04:54:00;;;;;;;29.55;18.00;;;;;;;;;;10547504;28;20039;-73
2023/07/03 05:04:38;;;;;;;26.52;16.15;;;;;;;;;;10544790;28;20012;-72
2023/07/03 05:09:38;;;;;;;29.03;18.23;;;;;;;;;;10545772;28;20075;-73
2023/07/03 05:20:18;;;;;;;30.13;17.40;;;;;;;;;;10544287;28;20012;-73
2023/07/03 05:25:18;;;;;;;23.33;14.50;;;;;;;;;;10544403;28;20019;-73
2023/07/03 05:36:00;;;;;;;21.50;12.50;;;;;;;;;;10545301;28;20004;-73
2023/07/03 05:41:01;;;;;;;17.55;12.90;;;;;;;;;;10545424;28;20225;-73
2023/07/03 05:57:16;;;;;;;18.55;11.65;;;;;;;;;;10546790;28;20008;-72
2023/07/03 06:02:17;;;;;;;20.45;12.50;;;;;;;;;;10544368;28;20016;-73
2023/07/03 06:07:17;;;;;;;19.13;12.18;;;;;;;;;;10544857;28;20191;-74
2023/07/03 06:12:17;;;;;;;18.23;10.83;;;;;;;;;;10543595;28;20039;-73
2023/07/03 06:28:14;;;;;;;15.50;10.23;;;;;;;;;;10545515;28;19896;-73
2023/07/03 06:33:15;;;;;;;18.75;12.18;;;;;;;;;;10543200;28;20229;-73
2023/07/03 06:43:53;;;;;;;15.20;9.55;;;;;;;;;;10543599;28;20302;-73
2023/07/03 06:48:54;;;;;;;12.30;9.15;;;;;;;;;;10543560;28;20020;-72
2023/07/03 06:53:55;;;;;;;13.15;10.00;;;;;;;;;;10544730;28;20243;-72
2023/07/03 07:04:33;;;;;;;11.90;8.75;;;;;;;;;;10543123;28;20016;-72
2023/07/03 07:09:33;;;;;;;28.35;9.75;;;;;;;;;;10541562;28;20079;-74
2023/07/03 07:14:33;;;;;;;11.67;8.33;;;;;;;;;;10541632;28;20393;-72
2023/07/03 07:19:34;;;;;;;10.90;7.43;;;;;;;;;;10542046;28;20347;-73
2023/07/03 07:24:34;;;;;;;12.63;8.20;;;;;;;;;;10543623;28;20111;-74
2023/07/03 07:35:12;;;;;;;11.55;6.93;;;;;;;;;;10542151;28;20049;-74
2023/07/03 07:45:54;;;;;;;11.70;7.13;;;;;;;;;;10540507;28;20283;-74
2023/07/03 07:50:55;;;;;;;10.70;7.13;;;;;;;;;;10540297;28;20035;-73
2023/07/03 07:55:58;;;;;;;9.95;6.75;;;;;;;;;;10542526;28;20027;-73
2023/07/03 08:00:58;;;;;;;11.52;6.90;;;;;;;;;;10542830;28;20320;-73
2023/07/03 08:11:37;;;;;;;11.82;6.05;;;;;;;;;;10541393;28;20044;-73
2023/07/03 08:16:38;;;;;;;9.05;6.50;;;;;;;;;;10541215;28;20020;-73
2023/07/03 08:21:38;;;;;;;10.70;6.05;;;;;;;;;;10541516;28;20039;-73
2023/07/03 08:26:38;;;;;;;11.73;6.53;;;;;;;;;;10542337;28;20024;-74
2023/07/03 08:31:39;;;;;;;10.20;6.87;;;;;;;;;;10541139;28;20255;-73
2023/07/03 08:42:23;;;;;;;8.63;5.78;;;;;;;;;;10541032;28;20478;-74
2023/07/03 08:47:27;;;;;;;7.45;5.07;;;;;;;;;;10540450;28;20408;-73
2023/07/03 08:52:33;;;;;;;13.98;5.97;;;;;;;;;;10540303;28;20076;-73
2023/07/03 09:03:10;;;;;;;9.27;5.53;;;;;;;;;;10548251;28;20016;-73
2023/07/03 09:08:13;;;;;;;6.18;4.95;;;;;;;;;;10546572;28;20020;-73
2023/07/03 09:13:16;;;;;;;7.03;4.70;;;;;;;;;;10551319;28;20059;-73
2023/07/03 09:29:34;;;;;;;9.95;5.18;;;;;;;;;;10548579;28;20015;-73
2023/07/03 09:34:53;;;;;;;9.13;5.10;;;;;;;;;;10546806;28;20237;-73
2023/07/03 09:45:35;;;;;;;10.63;5.45;;;;;;;;;;10546093;28;20016;-73
2023/07/03 09:50:36;;;;;;;8.88;5.63;;;;;;;;;;10546692;28;20027;-73
2023/07/03 09:55:37;;;;;;;12.10;5.65;;;;;;;;;;10545424;28;20053;-73
2023/07/03 10:06:17;;;;;;;7.40;4.70;;;;;;;;;;10546126;28;20024;-73
2023/07/03 10:11:19;;;;;;;7.68;4.88;;;;;;;;;;10544400;28;20049;-73
2023/07/03 10:16:21;;;;;;;9.68;5.03;;;;;;;;;;10545051;28;20026;-74
2023/07/03 10:21:22;;;;;;;7.15;4.88;;;;;;;;;;10545899;28;20026;-73
2023/07/03 10:26:25;;;;;;;6.68;4.20;;;;;;;;;;10545773;28;20253;-73
2023/07/03 10:31:32;;;;;;;8.75;5.07;;;;;;;;;;10544933;28;20236;-73
2023/07/03 10:36:34;;;;;;;8.48;3.75;;;;;;;;;;10544422;28;20135;-73
2023/07/03 10:41:44;;;;;;;6.20;4.30;;;;;;;;;;10544318;28;20083;-74
2023/07/03 10:46:57;;;;;;;7.88;4.95;;;;;;;;;;10544016;28;20102;-73
2023/07/03 10:51:57;;;;;;;8.93;5.22;;;;;;;;;;10545513;28;20012;-73
2023/07/03 10:56:58;;;;;;;5.65;4.18;;;;;;;;;;10544923;28;20202;-73
2023/07/03 11:02:05;;;;;;;5.05;4.07;;;;;;;;;;10543580;28;20083;-73
2023/07/03 11:07:05;;;;;;;4.35;3.67;;;;;;;;;;10543564;28;20043;-72
2023/07/03 11:12:12;;;;;;;6.32;4.72;;;;;;;;;;10542713;28;20234;-73
2023/07/03 11:28:32;;;;;;;9.30;5.55;;;;;;;;;;10543912;28;20035;-73
2023/07/03 11:33:33;;;;;;;12.80;5.45;;;;;;;;;;10543052;28;20020;-73
2023/07/03 11:44:29;;;;;;;7.32;5.22;;;;;;;;;;10542195;28;20079;-72
2023/07/03 11:55:07;;;;;;;;;;;;;;;;;;10545185;28;20016;-72
2023/07/03 12:05:49;;;;;;;6.22;5.07;;;;;;;;;;10541955;28;20012;-73
2023/07/03 12:10:49;;;;;;;11.60;5.47;;;;;;;;;;10541890;28;20352;-73
2023/07/03 12:21:39;;;;;;;8.77;4.43;;;;;;;;;;10541948;28;20016;-73
2023/07/03 12:26:49;;;;;;;5.78;3.72;;;;;;;;;;10542273;28;20023;-73
2023/07/03 12:31:56;;;;;;;8.48;4.32;;;;;;;;;;10541596;28;20190;-73
2023/07/03 12:37:01;;;;;;;9.80;4.07;;;;;;;;;;10547484;28;20285;-72
2023/07/03 12:42:05;;;;;;;5.85;4.10;;;;;;;;;;10549200;28;20072;-72
2023/07/03 12:47:07;;;;;;;6.35;4.28;;;;;;;;;;10547599;28;20020;-73
2023/07/03 12:52:07;;;;;;;6.60;4.30;;;;;;;;;;10548760;28;20047;-72
2023/07/03 12:57:09;;;;;;;7.70;4.10;;;;;;;;;;10549633;28;20080;-73
2023/07/03 13:13:24;;;;;;;;;;;;;;;;;;10545307;28;20044;-74
2023/07/03 13:29:46;;;;;;;6.05;4.00;;;;;;;;;;10548115;28;20375;-73
2023/07/03 13:40:24;;;;;;;5.80;3.88;;;;;;;;;;10547054;28;20012;-73
2023/07/03 13:45:25;;;;;;;7.90;4.03;;;;;;;;;;10546121;28;20047;-73
2023/07/03 13:50:25;;;;;;;6.07;3.60;;;;;;;;;;10547761;28;20016;-73
2023/07/03 14:01:04;;;;;;;4.88;3.30;;;;;;;;;;10548345;28;20012;-72
2023/07/03 14:06:06;;;;;;;5.88;3.60;;;;;;;;;;10557135;28;20016;-73
2023/07/03 14:11:10;;;;;;;5.97;3.92;;;;;;;;;;10544334;28;20032;-73
2023/07/03 14:16:10;;;;;;;6.82;3.47;;;;;;;;;;10547856;28;20107;-73
2023/07/03 14:26:48;;;;;;;4.65;3.65;;;;;;;;;;10546861;28;20362;-74
2023/07/03 14:31:49;;;;;;;4.53;3.10;;;;;;;;;;10546442;28;20020;-73
2023/07/03 14:42:27;;;;;;;5.65;3.80;;;;;;;;;;10544958;28;20083;-73
2023/07/03 14:58:23;;;;;;;6.90;3.95;;;;;;;;;;10545185;28;19900;-73
2023/07/03 15:03:24;;;;;;;5.05;3.85;;;;;;;;;;10543296;28;20028;-73
2023/07/03 15:08:25;;;;;;;5.40;3.42;;;;;;;;;;10542509;28;20023;-73
2023/07/03 15:13:25;;;;;;;5.03;3.50;;;;;;;;;;10550988;28;20052;-73
2023/07/03 15:29:41;;;;;;;8.98;5.60;;;;;;;;;;10543233;28;20225;-74
2023/07/03 15:40:19;;;;;;;;;;;;;;;;;;10542581;28;20036;-74
2023/07/03 15:45:22;;;;;;;5.80;3.58;;;;;;;;;;10541478;28;19900;-73
2023/07/03 16:01:37;;;;;;;4.63;3.00;;;;;;;;;;10543068;28;20008;-74
2023/07/03 16:06:37;;;;;;;6.75;4.38;;;;;;;;;;10541408;28;20019;-73
2023/07/03 16:17:22;;;;;;;8.48;5.03;;;;;;;;;;10547297;28;20060;-73
2023/07/03 16:22:34;;;;;;;7.38;4.53;;;;;;;;;;10549295;28;20222;-73
2023/07/03 16:27:35;;;;;;;10.32;4.22;;;;;;;;;;10550372;28;20353;-74
2023/07/03 16:32:35;;;;;;;12.52;6.18;;;;;;;;;;10550414;28;20095;-72
2023/07/03 16:43:13;;;;;;;9.45;4.50;;;;;;;;;;10548593;28;20052;-73
2023/07/03 16:48:13;;;;;;;6.75;5.07;;;;;;;;;;10548235;28;20140;-73
2023/07/03 16:53:15;;;;;;;8.70;4.80;;;;;;;;;;10549843;28;20024;-74
2023/07/03 16:58:15;;;;;;;7.75;4.53;;;;;;;;;;10548814;28;20015;-74
2023/07/03 17:14:31;;;;;;;8.55;4.30;;;;;;;;;;10547472;28;20052;-73
2023/07/03 17:19:32;;;;;;;4.72;3.28;;;;;;;;;;10547925;28;20218;-74
2023/07/03 17:24:32;;;;;;;5.38;3.80;;;;;;;;;;10547174;28;20024;-74
2023/07/03 17:29:33;;;;;;;6.20;4.43;;;;;;;;;;10547904;28;20073;-74
2023/07/03 17:34:34;;;;;;;5.78;3.80;;;;;;;;;;10545728;28;20210;-73
2023/07/03 17:39:55;;;;;;;13.33;4.43;;;;;;;;;;10545427;28;20050;-75
2023/07/03 17:44:56;;;;;;;7.63;3.80;;;;;;;;;;10543116;28;20016;-73
2023/07/03 18:01:12;;;;;;;5.95;3.90;;;;;;;;;;10541043;28;20012;-73
2023/07/03 18:06:12;;;;;;;4.93;4.07;;;;;;;;;;10543758;28;20016;-71
2023/07/03 18:11:12;;;;;;;4.53;3.58;;;;;;;;;;10539824;28;20020;-72
2023/07/03 18:16:12;;;;;;;6.28;3.70;;;;;;;;;;10545611;28;20036;-71
2023/07/03 18:27:28;;;;;;;6.35;3.75;;;;;;;;;;10543130;28;20039;-71
2023/07/03 18:38:05;;;;;;;6.40;3.33;;;;;;;;;;10541961;28;20271;-73
2023/07/03 18:43:06;;;;;;;6.15;4.10;;;;;;;;;;10541751;28;20012;-74
2023/07/03 18:59:21;;;;;;;5.60;4.20;;;;;;;;;;10542482;28;20032;-78
2023/07/03 19:04:22;;;;;;;9.87;4.43;;;;;;;;;;10542114;28;20394;-76
2023/07/03 19:15:01;;;;;;;16.20;6.30;;;;;;;;;;10542409;28;20345;-78
2023/07/03 19:31:17;;;;;;;11.35;5.20;;;;;;;;;;10542489;28;20027;-85
2023/07/03 19:36:20;;;;;;;8.48;4.72;;;;;;;;;;10540905;28;20361;-72
2023/07/03 19:52:36;;;;;;;9.13;4.93;;;;;;;;;;10541544;28;20032;-74
2023/07/03 19:57:36;;;;;;;8.27;3.95;;;;;;;;;;10540813;28;20020;-72
2023/07/03 20:08:14;;;;;;;7.70;4.43;;;;;;;;;;10541630;28;20285;-69
2023/07/03 20:18:57;;;;;;;6.97;4.07;;;;;;;;;;10536226;28;20354;-72
2023/07/03 20:23:57;;;;;;;9.63;3.65;;;;;;;;;;10539410;28;20360;-73
2023/07/03 20:28:58;;;;;;;6.25;3.88;;;;;;;;;;10540297;28;20104;-73
2023/07/03 20:33:58;;;;;;;6.20;4.75;;;;;;;;;;10539445;28;20020;-70
2023/07/03 20:38:58;;;;;;;8.73;4.03;;;;;;;;;;10540286;28;20326;-75
2023/07/03 20:43:59;;;;;;;9.18;4.32;;;;;;;;;;10539538;28;20027;-74
2023/07/03 21:00:15;;;;;;;8.50;5.03;;;;;;;;;;10547504;28;20183;-72
2023/07/03 21:05:15;;;;;;;9.95;4.93;;;;;;;;;;10547365;28;20020;-67
2023/07/03 21:10:16;;;;;;;7.60;4.38;;;;;;;;;;10548219;28;20024;-67
2023/07/03 21:21:14;;;;;;;12.32;5.30;;;;;;;;;;10548387;28;20032;-67
2023/07/03 21:26:15;;;;;;;9.38;5.38;;;;;;;;;;10546810;28;20024;-68
2023/07/03 21:31:16;;;;;;;10.10;4.93;;;;;;;;;;10546582;28;20016;-67
2023/07/03 21:36:21;;;;;;;10.43;4.95;;;;;;;;;;10547190;28;20019;-67
2023/07/03 21:47:00;;;;;;;9.82;5.10;;;;;;;;;;10547948;28;20032;-67
2023/07/03 22:03:16;;;;;;;16.23;5.07;;;;;;;;;;10561176;28;20008;-67
2023/07/03 22:13:54;;;;;;;8.07;5.10;;;;;;;;;;10547033;28;20226;-68
2023/07/03 22:18:55;;;;;;;10.68;4.85;;;;;;;;;;10545347;28;20040;-67
2023/07/03 22:23:56;;;;;;;8.60;4.65;;;;;;;;;;10546107;28;20337;-67
2023/07/03 22:28:57;;;;;;;7.43;4.70;;;;;;;;;;10544931;28;20180;-67
2023/07/03 22:33:57;;;;;;;7.13;4.68;;;;;;;;;;10546826;28;20092;-67
2023/07/03 22:38:57;;;;;;;13.63;5.38;;;;;;;;;;10543610;28;20324;-67
2023/07/03 22:43:57;;;;;;;6.82;5.22;;;;;;;;;;10546441;28;20026;-67
2023/07/03 22:48:58;;;;;;;9.15;5.20;;;;;;;;;;10545317;28;20354;-67
2023/07/03 22:53:59;;;;;;;8.52;5.03;;;;;;;;;;10543878;28;20015;-67
2023/07/03 22:58:59;;;;;;;9.68;6.35;;;;;;;;;;10545147;28;20060;-67
2023/07/03 23:09:37;;;;;;;8.70;5.28;;;;;;;;;;10544831;28;20012;-68
2023/07/03 23:14:38;;;;;;;8.45;5.80;;;;;;;;;;10544626;28;20266;-67
2023/07/03 23:19:39;;;;;;;13.43;4.93;;;;;;;;;;10543992;28;20063;-67
2023/07/03 23:24:40;;;;;;;6.82;4.88;;;;;;;;;;10543950;28;20016;-67
2023/07/03 23:29:40;;;;;;;6.37;4.60;;;;;;;;;;10543853;28;20038;-67
2023/07/03 23:40:18;;;;;;;7.43;4.80;;;;;;;;;;10543507;28;20008;-68
2023/07/03 23:45:19;;;;;;;9.57;4.70;;;;;;;;;;10543211;28;20318;-68
